PWSweather.com
Personal Weather Stations
Station Observations
INORDPAS37
Bondues, BonduesFR 59910

BonduesBonduesFR 59910

Lat: 50.7, Lon: 3.09

Elevation: 102

Station Type: Netatmo

http://bondues.meteoamikuze.com

High Low Average
Temperature 68.4°F20.2°C 50.9°F10.5°C 57.8°F14.3°C
Dew Point 53.6°F12.0°C 38.3°F3.5°C 43.6°F6.4°C
Winds 1.8 mph 2.9 kmh 0.7 mph 1.1 kmh 1.0 mph S1.6 kmh S
Wind Gusts 6.9 mph11.1 kmh 1.3 mph2.1 kmh 3.0 mph4.8 kmh
Humidity 70% 58% 64%
Pressure 30.22 in1023.4 mb 30.09 in1019.0 mb -
Precipitation 0.00 in0.0 mm - -
Hour Temp Dew Point Humidity Winds Wind Gusts Pressure Precip Precip Rate Daily Precip Total
12:06 AM 56.5°F13.6°C 40.8°F4.9°C 60% 0.7 mph SSW1.1 kmh SSW 1.3 mph2.1 kmh 30.09 in1019.0 mb 0.00 in0.0 mm 0.00 in0.0 mm 0.00 in0.0 mm
12:27 AM 56.1°F13.4°C 40.8°F4.9°C 61% 0.7 mph S1.1 kmh S 1.8 mph2.9 kmh 30.10 in1019.3 mb 0.00 in0.0 mm 0.00 in0.0 mm 0.00 in0.0 mm
12:46 AM 55.6°F13.1°C 40.3°F4.6°C 61% 0.7 mph S1.1 kmh S 1.3 mph2.1 kmh 30.10 in1019.3 mb 0.00 in0.0 mm 0.00 in0.0 mm 0.00 in0.0 mm
01:06 AM 55.0°F12.8°C 40.3°F4.6°C 62% 0.7 mph S1.1 kmh S 1.8 mph2.9 kmh 30.10 in1019.3 mb 0.00 in0.0 mm 0.00 in0.0 mm 0.00 in0.0 mm
01:26 AM 54.5°F12.5°C 40.1°F4.5°C 63% 0.7 mph S1.1 kmh S 1.3 mph2.1 kmh 30.10 in1019.3 mb 0.00 in0.0 mm 0.00 in0.0 mm 0.00 in0.0 mm
01:46 AM 54.1°F12.3°C 39.7°F4.3°C 63% 0.7 mph S1.1 kmh S 1.8 mph2.9 kmh 30.10 in1019.3 mb 0.00 in0.0 mm 0.00 in0.0 mm 0.00 in0.0 mm
02:07 AM 53.8°F12.1°C 39.9°F4.4°C 64% 0.7 mph S1.1 kmh S 1.3 mph2.1 kmh 30.10 in1019.3 mb 0.00 in0.0 mm 0.00 in0.0 mm 0.00 in0.0 mm
02:26 AM 53.6°F12.0°C 39.7°F4.3°C 64% 0.7 mph S1.1 kmh S 1.8 mph2.9 kmh 30.10 in1019.3 mb 0.00 in0.0 mm 0.00 in0.0 mm 0.00 in0.0 mm
02:47 AM 53.4°F11.9°C 39.6°F4.2°C 64% 1.3 mph S2.1 kmh S 1.8 mph2.9 kmh 30.10 in1019.3 mb 0.00 in0.0 mm 0.00 in0.0 mm 0.00 in0.0 mm
03:06 AM 53.6°F12.0°C 40.1°F4.5°C 65% 1.3 mph S2.1 kmh S 1.8 mph2.9 kmh 30.10 in1019.3 mb 0.00 in0.0 mm 0.00 in0.0 mm 0.00 in0.0 mm
03:27 AM 53.6°F12.0°C 40.1°F4.5°C 65% 1.3 mph S2.1 kmh S 2.5 mph4.0 kmh 30.09 in1019.0 mb 0.00 in0.0 mm 0.00 in0.0 mm 0.00 in0.0 mm
03:47 AM 53.2°F11.8°C 39.7°F4.3°C 65% 0.7 mph S1.1 kmh S 1.3 mph2.1 kmh 30.10 in1019.3 mb 0.00 in0.0 mm 0.00 in0.0 mm 0.00 in0.0 mm
04:00 AM 53.1°F11.7°C 39.6°F4.2°C 65% 0.7 mph S1.1 kmh S 1.3 mph2.1 kmh 30.10 in1019.3 mb 0.00 in0.0 mm 0.00 in0.0 mm 0.00 in0.0 mm
04:21 AM 52.7°F11.5°C 39.2°F4.0°C 65% 0.7 mph S1.1 kmh S 1.3 mph2.1 kmh 30.10 in1019.3 mb 0.00 in0.0 mm 0.00 in0.0 mm 0.00 in0.0 mm
04:40 AM 52.5°F11.4°C 39.4°F4.1°C 66% 0.7 mph S1.1 kmh S 1.3 mph2.1 kmh 30.10 in1019.3 mb 0.00 in0.0 mm 0.00 in0.0 mm 0.00 in0.0 mm
05:01 AM 52.2°F11.2°C 39.0°F3.9°C 66% 1.3 mph S2.1 kmh S 1.8 mph2.9 kmh 30.10 in1019.3 mb 0.00 in0.0 mm 0.00 in0.0 mm 0.00 in0.0 mm
05:21 AM 51.6°F10.9°C 38.5°F3.6°C 66% 0.7 mph S1.1 kmh S 1.3 mph2.1 kmh 30.10 in1019.3 mb 0.00 in0.0 mm 0.00 in0.0 mm 0.00 in0.0 mm
05:41 AM 51.4°F10.8°C 38.5°F3.6°C 66% 0.7 mph S1.1 kmh S 1.8 mph2.9 kmh 30.11 in1019.6 mb 0.00 in0.0 mm 0.00 in0.0 mm 0.00 in0.0 mm
06:01 AM 51.3°F10.7°C 38.7°F3.7°C 67% 0.7 mph SSW1.1 kmh SSW 1.8 mph2.9 kmh 30.11 in1019.6 mb 0.00 in0.0 mm 0.00 in0.0 mm 0.00 in0.0 mm
06:21 AM 50.9°F10.5°C 38.3°F3.5°C 67% 1.8 mph SW2.9 kmh SW 3.1 mph5.0 kmh 30.11 in1019.6 mb 0.00 in0.0 mm 0.00 in0.0 mm 0.00 in0.0 mm
06:41 AM 50.9°F10.5°C 38.3°F3.5°C 67% 0.7 mph S1.1 kmh S 1.8 mph2.9 kmh 30.11 in1019.6 mb 0.00 in0.0 mm 0.00 in0.0 mm 0.00 in0.0 mm
07:01 AM 51.1°F10.6°C 38.5°F3.6°C 67% 1.3 mph SSW2.1 kmh SSW 2.5 mph4.0 kmh 30.11 in1019.6 mb 0.00 in0.0 mm 0.00 in0.0 mm 0.00 in0.0 mm
07:21 AM 51.6°F10.9°C 39.0°F3.9°C 67% 1.8 mph SW2.9 kmh SW 2.5 mph4.0 kmh 30.12 in1020.0 mb 0.00 in0.0 mm 0.00 in0.0 mm 0.00 in0.0 mm
07:41 AM 52.3°F11.3°C 40.1°F4.5°C 68% 1.3 mph SW2.1 kmh SW 1.8 mph2.9 kmh 30.12 in1020.0 mb 0.00 in0.0 mm 0.00 in0.0 mm 0.00 in0.0 mm
08:01 AM 52.9°F11.6°C 40.5°F4.7°C 68% 1.3 mph SW2.1 kmh SW 1.8 mph2.9 kmh 30.13 in1020.3 mb 0.00 in0.0 mm 0.00 in0.0 mm 0.00 in0.0 mm
08:22 AM 53.4°F11.9°C 41.0°F5.0°C 68% 1.3 mph SW2.1 kmh SW 2.5 mph4.0 kmh 30.13 in1020.3 mb 0.00 in0.0 mm 0.00 in0.0 mm 0.00 in0.0 mm
08:41 AM 54.0°F12.2°C 41.5°F5.3°C 68% 1.3 mph SW2.1 kmh SW 1.8 mph2.9 kmh 30.13 in1020.3 mb 0.00 in0.0 mm 0.00 in0.0 mm 0.00 in0.0 mm
09:02 AM 54.5°F12.5°C 42.4°F5.8°C 69% 0.7 mph W1.1 kmh W 1.8 mph2.9 kmh 30.13 in1020.3 mb 0.00 in0.0 mm 0.00 in0.0 mm 0.00 in0.0 mm
09:22 AM 54.9°F12.7°C 42.8°F6.0°C 69% 0.7 mph SW1.1 kmh SW 2.5 mph4.0 kmh 30.14 in1020.7 mb 0.00 in0.0 mm 0.00 in0.0 mm 0.00 in0.0 mm
09:42 AM 55.6°F13.1°C 43.5°F6.4°C 69% 1.3 mph W2.1 kmh W 2.5 mph4.0 kmh 30.14 in1020.7 mb 0.00 in0.0 mm 0.00 in0.0 mm 0.00 in0.0 mm
10:02 AM 56.1°F13.4°C 44.1°F6.7°C 69% 1.3 mph W2.1 kmh W 2.5 mph4.0 kmh 30.14 in1020.7 mb 0.00 in0.0 mm 0.00 in0.0 mm 0.00 in0.0 mm
10:23 AM 56.8°F13.8°C 45.1°F7.3°C 70% 0.7 mph SW1.1 kmh SW 3.8 mph6.1 kmh 30.15 in1021.0 mb 0.00 in0.0 mm 0.00 in0.0 mm 0.00 in0.0 mm
10:43 AM 58.5°F14.7°C 46.8°F8.2°C 70% 1.3 mph W2.1 kmh W 3.1 mph5.0 kmh 30.14 in1020.7 mb 0.00 in0.0 mm 0.00 in0.0 mm 0.00 in0.0 mm
11:03 AM 60.8°F16.0°C 48.6°F9.2°C 69% 0.7 mph NW1.1 kmh NW 3.1 mph5.0 kmh 30.14 in1020.7 mb 0.00 in0.0 mm 0.00 in0.0 mm 0.00 in0.0 mm
11:23 AM 62.6°F17.0°C 50.2°F10.1°C 69% 0.7 mph NW1.1 kmh NW 2.5 mph4.0 kmh 30.13 in1020.3 mb 0.00 in0.0 mm 0.00 in0.0 mm 0.00 in0.0 mm
11:43 AM 63.7°F17.6°C 50.9°F10.5°C 68% 1.3 mph W2.1 kmh W 4.3 mph6.9 kmh 30.14 in1020.7 mb 0.00 in0.0 mm 0.00 in0.0 mm 0.00 in0.0 mm
12:04 PM 64.6°F18.1°C 51.3°F10.7°C 67% 0.7 mph SW1.1 kmh SW 2.5 mph4.0 kmh 30.13 in1020.3 mb 0.00 in0.0 mm 0.00 in0.0 mm 0.00 in0.0 mm
12:23 PM 65.1°F18.4°C 51.4°F10.8°C 66% 1.3 mph WSW2.1 kmh WSW 3.8 mph6.1 kmh 30.13 in1020.3 mb 0.00 in0.0 mm 0.00 in0.0 mm 0.00 in0.0 mm
12:44 PM 66.7°F19.3°C 52.5°F11.4°C 65% 1.3 mph NW2.1 kmh NW 3.8 mph6.1 kmh 30.13 in1020.3 mb 0.00 in0.0 mm 0.00 in0.0 mm 0.00 in0.0 mm
01:04 PM 68.4°F20.2°C 53.6°F12.0°C 64% 1.8 mph NW2.9 kmh NW 4.3 mph6.9 kmh 30.12 in1020.0 mb 0.00 in0.0 mm 0.00 in0.0 mm 0.00 in0.0 mm
01:24 PM 67.6°F19.8°C 52.5°F11.4°C 63% 0.7 mph W1.1 kmh W 2.5 mph4.0 kmh 30.12 in1020.0 mb 0.00 in0.0 mm 0.00 in0.0 mm 0.00 in0.0 mm
01:45 PM 66.9°F19.4°C 51.4°F10.8°C 62% 1.3 mph WNW2.1 kmh WNW 3.1 mph5.0 kmh 30.12 in1020.0 mb 0.00 in0.0 mm 0.00 in0.0 mm 0.00 in0.0 mm
02:04 PM 65.8°F18.8°C 50.0°F10.0°C 61% 1.3 mph W2.1 kmh W 2.5 mph4.0 kmh 30.12 in1020.0 mb 0.00 in0.0 mm 0.00 in0.0 mm 0.00 in0.0 mm
02:25 PM 66.0°F18.9°C 49.8°F9.9°C 60% 1.3 mph W2.1 kmh W 3.8 mph6.1 kmh 30.12 in1020.0 mb 0.00 in0.0 mm 0.00 in0.0 mm 0.00 in0.0 mm
02:45 PM 67.1°F19.5°C 50.4°F10.2°C 59% 1.3 mph W2.1 kmh W 3.1 mph5.0 kmh 30.12 in1020.0 mb 0.00 in0.0 mm 0.00 in0.0 mm 0.00 in0.0 mm
03:05 PM 68.0°F20.0°C 50.9°F10.5°C 58% 1.3 mph WNW2.1 kmh WNW 4.3 mph6.9 kmh 30.12 in1020.0 mb 0.00 in0.0 mm 0.00 in0.0 mm 0.00 in0.0 mm
03:25 PM 66.9°F19.4°C 49.8°F9.9°C 58% 0.7 mph W1.1 kmh W 2.5 mph4.0 kmh 30.12 in1020.0 mb 0.00 in0.0 mm 0.00 in0.0 mm 0.00 in0.0 mm
03:46 PM 66.2°F19.0°C 49.1°F9.5°C 58% 1.3 mph NNW2.1 kmh NNW 3.8 mph6.1 kmh 30.13 in1020.3 mb 0.00 in0.0 mm 0.00 in0.0 mm 0.00 in0.0 mm
04:06 PM 65.8°F18.8°C 48.7°F9.3°C 58% 0.7 mph W1.1 kmh W 2.5 mph4.0 kmh 30.13 in1020.3 mb 0.00 in0.0 mm 0.00 in0.0 mm 0.00 in0.0 mm
04:26 PM 64.9°F18.3°C 48.0°F8.9°C 58% 1.3 mph W2.1 kmh W 3.1 mph5.0 kmh 30.12 in1020.0 mb 0.00 in0.0 mm 0.00 in0.0 mm 0.00 in0.0 mm
04:46 PM 64.6°F18.1°C 47.7°F8.7°C 58% 0.7 mph W1.1 kmh W 2.5 mph4.0 kmh 30.12 in1020.0 mb 0.00 in0.0 mm 0.00 in0.0 mm 0.00 in0.0 mm
05:06 PM 64.0°F17.8°C 47.1°F8.4°C 58% 0.7 mph NW1.1 kmh NW 3.1 mph5.0 kmh 30.12 in1020.0 mb 0.00 in0.0 mm 0.00 in0.0 mm 0.00 in0.0 mm
05:27 PM 63.5°F17.5°C 46.6°F8.1°C 58% 1.3 mph NNE2.1 kmh NNE 4.3 mph6.9 kmh 30.13 in1020.3 mb 0.00 in0.0 mm 0.00 in0.0 mm 0.00 in0.0 mm
05:46 PM 62.6°F17.0°C 45.7°F7.6°C 58% 0.7 mph N1.1 kmh N 1.8 mph2.9 kmh 30.13 in1020.3 mb 0.00 in0.0 mm 0.00 in0.0 mm 0.00 in0.0 mm
06:07 PM 61.7°F16.5°C 45.0°F7.2°C 58% 0.7 mph E1.1 kmh E 1.3 mph2.1 kmh 30.14 in1020.7 mb 0.00 in0.0 mm 0.00 in0.0 mm 0.00 in0.0 mm
06:27 PM 60.6°F15.9°C 44.2°F6.8°C 59% 1.3 mph NNW2.1 kmh NNW 3.8 mph6.1 kmh 30.15 in1021.0 mb 0.00 in0.0 mm 0.00 in0.0 mm 0.00 in0.0 mm
06:47 PM 59.7°F15.4°C 43.9°F6.6°C 60% 1.3 mph NNE2.1 kmh NNE 5.6 mph9.0 kmh 30.16 in1021.3 mb 0.00 in0.0 mm 0.00 in0.0 mm 0.00 in0.0 mm
07:08 PM 59.0°F15.0°C 43.2°F6.2°C 60% 1.3 mph N2.1 kmh N 3.8 mph6.1 kmh 30.16 in1021.3 mb 0.00 in0.0 mm 0.00 in0.0 mm 0.00 in0.0 mm
07:27 PM 58.5°F14.7°C 43.2°F6.2°C 61% 1.8 mph NE2.9 kmh NE 6.9 mph11.1 kmh 30.16 in1021.3 mb 0.00 in0.0 mm 0.00 in0.0 mm 0.00 in0.0 mm
07:48 PM 57.9°F14.4°C 42.6°F5.9°C 61% 1.3 mph NNE2.1 kmh NNE 3.8 mph6.1 kmh 30.17 in1021.7 mb 0.00 in0.0 mm 0.00 in0.0 mm 0.00 in0.0 mm
08:08 PM 57.4°F14.1°C 42.4°F5.8°C 62% 1.3 mph NNE2.1 kmh NNE 3.8 mph6.1 kmh 30.18 in1022.0 mb 0.00 in0.0 mm 0.00 in0.0 mm 0.00 in0.0 mm
08:28 PM 56.8°F13.8°C 41.9°F5.5°C 62% 0.7 mph NNE1.1 kmh NNE 3.8 mph6.1 kmh 30.19 in1022.4 mb 0.00 in0.0 mm 0.00 in0.0 mm 0.00 in0.0 mm
08:48 PM 56.3°F13.5°C 41.9°F5.5°C 63% 0.7 mph NE1.1 kmh NE 3.8 mph6.1 kmh 30.19 in1022.4 mb 0.00 in0.0 mm 0.00 in0.0 mm 0.00 in0.0 mm
09:09 PM 55.9°F13.3°C 41.9°F5.5°C 64% 0.7 mph NNE1.1 kmh NNE 2.5 mph4.0 kmh 30.19 in1022.4 mb 0.00 in0.0 mm 0.00 in0.0 mm 0.00 in0.0 mm
09:29 PM 55.4°F13.0°C 41.4°F5.2°C 64% 0.7 mph NNE1.1 kmh NNE 1.8 mph2.9 kmh 30.20 in1022.7 mb 0.00 in0.0 mm 0.00 in0.0 mm 0.00 in0.0 mm
09:49 PM 55.0°F12.8°C 41.4°F5.2°C 65% 0.7 mph NE1.1 kmh NE 3.1 mph5.0 kmh 30.21 in1023.0 mb 0.00 in0.0 mm 0.00 in0.0 mm 0.00 in0.0 mm
09:59 PM 54.9°F12.7°C 41.2°F5.1°C 65% 0.7 mph NNE1.1 kmh NNE 1.8 mph2.9 kmh 30.21 in1023.0 mb 0.00 in0.0 mm 0.00 in0.0 mm 0.00 in0.0 mm
10:19 PM 54.3°F12.4°C 40.8°F4.9°C 65% 0.7 mph W1.1 kmh W 1.8 mph2.9 kmh 30.21 in1023.0 mb 0.00 in0.0 mm 0.00 in0.0 mm 0.00 in0.0 mm
10:39 PM 53.8°F12.1°C 40.3°F4.6°C 65% 0.7 mph NW1.1 kmh NW 1.8 mph2.9 kmh 30.21 in1023.0 mb 0.00 in0.0 mm 0.00 in0.0 mm 0.00 in0.0 mm
11:00 PM 53.4°F11.9°C 39.9°F4.4°C 65% 0.7 mph W1.1 kmh W 1.3 mph2.1 kmh 30.22 in1023.4 mb 0.00 in0.0 mm 0.00 in0.0 mm 0.00 in0.0 mm
11:20 PM 53.1°F11.7°C 39.9°F4.4°C 66% 0.7 mph E1.1 kmh E 1.8 mph2.9 kmh 30.22 in1023.4 mb 0.00 in0.0 mm 0.00 in0.0 mm 0.00 in0.0 mm
11:46 PM 52.5°F11.4°C 39.4°F4.1°C 66% 0.7 mph NE1.1 kmh NE 1.8 mph2.9 kmh 30.22 in1023.4 mb 0.00 in0.0 mm 0.00 in0.0 mm 0.00 in0.0 mm